Ana Sayfa
METAR-TAF:

METAR-TAF

Havaalanları :

Larnaka Uluslararası Havalimanı

Larnaka, Kıbrıs

Enlem: 34-53N, Boylam: 033-38E, yükseklik: 2 m

Güncel hava durumu gözlemi

Rapor saat 19:30 UTC de 32 dakika önce yapıldı.
Rüzgar kuzeybatıdan 9 kt
Sıcaklık 20°C
Nem 68%
Basınç 1014 hPa
Görüş mesafesi 10 km veya daha fazla
1500 m altında bulut yok ve kümülonimbus yok

METAR: LCLK 311930Z 32009KT CAVOK 20/14 Q1014 NOSIG

Saat: 23:02 (20:02 UTC)

Tahmin

Rapor saat 17:30 UTC de 2 saat ve 32 dakika önce yapıldı.
Ayın 31'si saat 18 UTC'den ayın 01'si saat 18 UTC'ye kadar geçerli Tahmin
Rüzgar kuzeybatıdan 8 kt
Görüş mesafesi 10 km veya daha fazla
3000 ft yükseklikte az bulutlu
Dönüşüyor
ayın 01'si saat 08 UTC'den ayın 01'si saat 12 UTC'ye kadar
Rüzgar güneybatıdan 16 kt
Dönüşüyor
ayın 01'si saat 15 UTC'den ayın 01'si saat 18 UTC'ye kadar
Rüzgar kuzeybatıdan 7 kt

TAF: LCLK 311730Z 3118/0118 32008KT 9999 FEW030 BECMG 0108/0112 22016KT BECMG 0115/0118 32007KT

4.000'den fazla havaalanı için hava durumu gözlemleri ve tahminleri (METAR ve TAF raporları).

Kullanılabilir istasyonlar harita üzerinde sarı ve kırmızı noktalarla gösterilir.

İstasyonun adını görmek için fareyi noktanın üzerinde gezdirin.

Sonrasında hava gözlem ve tahminlerini görmek için tıklayın.

Haritayı değiştirmek için: yaklaştırmak için siyah artı işaretli yeşil düğmeye ve uzaklaştırmak için de eksi işaretli düğmeye hızla tıklayın; bitişik haritalar için yeşil okları kullanın.


METAR-TAF: